Time;durP1;ratioP1;P1;durP2;ratioP2;P2;SDS_P1;SDS_P2;PMS_P1;PMS_P2;Temp;Humidity;BMP_temperature;BMP_pressure;BME280_temperature;BME280_humidity;BME280_pressure;Samples;Min_cycle;Max_cycle;Signal;HPM_P1;HPM_P2
2022/03/26 00:01:44;;;;;;;23.70;10.10;;;;;;;3.33;61.54;100450.23;103349;1302;24268;-25
2022/03/26 00:04:10;;;;;;;34.90;14.70;;;;;;;3.32;61.55;100450.16;103469;1301;24426;-25
2022/03/26 00:06:36;;;;;;;33.00;13.50;;;;;;;3.23;61.73;100450.73;103408;1302;24264;-26
2022/03/26 00:09:02;;;;;;;36.40;12.50;;;;;;;3.19;61.86;100447.67;103466;1302;24254;-26
2022/03/26 00:11:27;;;;;;;36.80;13.30;;;;;;;3.21;61.79;100449.58;103354;1302;24366;-28
2022/03/26 00:13:53;;;;;;;30.30;13.30;;;;;;;3.18;61.81;100448.11;103425;1302;22507;-25
2022/03/26 00:16:19;;;;;;;35.60;14.20;;;;;;;3.05;62.27;100451.23;103341;1302;24232;-25
2022/03/26 00:18:45;;;;;;;26.60;11.30;;;;;;;2.98;62.41;100448.27;103399;1302;24215;-29
2022/03/26 00:21:12;;;;;;;34.20;12.90;;;;;;;3.03;62.48;100445.59;103434;1302;24366;-24
2022/03/26 00:23:37;;;;;;;41.10;14.70;;;;;;;2.89;62.92;100446.67;103355;1305;24264;-27
2022/03/26 00:26:03;;;;;;;36.10;14.20;;;;;;;2.91;62.98;100443.37;103415;1302;22504;-25
2022/03/26 00:28:29;;;;;;;30.20;10.00;;;;;;;2.75;63.06;100446.71;103376;1300;24249;-28
2022/03/26 00:30:55;;;;;;;25.70;12.00;;;;;;;2.69;63.33;100445.45;103387;1302;24276;-26
2022/03/26 00:33:21;;;;;;;43.20;14.00;;;;;;;2.75;63.51;100444.42;103430;1302;24293;-25
2022/03/26 00:35:46;;;;;;;41.50;14.10;;;;;;;2.73;63.69;100444.05;103421;1302;24488;-29
2022/03/26 00:38:12;;;;;;;30.30;14.00;;;;;;;2.55;64.16;100441.95;103388;1302;24261;-29
2022/03/26 00:40:40;;;;;;;33.10;12.50;;;;;;;2.52;64.48;100443.27;103429;1302;24221;-25
2022/03/26 00:43:06;;;;;;;45.40;16.20;;;;;;;2.61;64.32;100442.75;103452;1302;25289;-26
2022/03/26 00:45:31;;;;;;;28.40;13.40;;;;;;;2.73;64.04;100441.20;103442;1302;24296;-29
2022/03/26 00:48:00;;;;;;;28.00;10.20;;;;;;;2.85;63.92;100437.46;103451;1302;22951;-30
2022/03/26 00:50:25;;;;;;;34.00;10.90;;;;;;;2.91;63.93;100430.77;103339;1302;24366;-25
2022/03/26 00:52:51;;;;;;;33.40;13.80;;;;;;;2.89;64.02;100427.27;103431;1302;24215;-27
2022/03/26 00:55:17;;;;;;;36.10;15.00;;;;;;;2.62;64.83;100433.80;103406;1302;24371;-30
2022/03/26 00:57:43;;;;;;;33.10;13.60;;;;;;;2.59;65.25;100427.80;103446;1302;24203;-28
2022/03/26 01:00:10;;;;;;;25.50;11.60;;;;;;;2.58;65.30;100430.39;103400;1302;24287;-28
2022/03/26 01:02:35;;;;;;;38.40;15.40;;;;;;;2.56;65.14;100428.62;103395;1302;24380;-26
2022/03/26 01:05:01;;;;;;;34.50;14.60;;;;;;;2.46;65.52;100429.92;103370;1302;24317;-28
2022/03/26 01:07:27;;;;;;;39.90;18.30;;;;;;;2.50;65.24;100430.34;103445;1302;25043;-25
2022/03/26 01:09:54;;;;;;;44.70;16.50;;;;;;;2.51;65.44;100422.29;103430;1302;24355;-25
2022/03/26 01:12:20;;;;;;;41.60;18.50;;;;;;;2.56;65.97;100422.77;103453;1302;24312;-25
2022/03/26 01:14:47;;;;;;;27.30;11.90;;;;;;;2.71;65.70;100420.77;103484;1302;24405;-25
2022/03/26 01:17:13;;;;;;;65.00;21.40;;;;;;;2.74;65.72;100412.65;103490;1302;24292;-28
2022/03/26 01:19:39;;;;;;;36.20;17.00;;;;;;;2.73;65.90;100411.73;103431;1302;24334;-30
2022/03/26 01:22:05;;;;;;;45.00;18.30;;;;;;;2.74;66.19;100407.56;103429;1302;24301;-26
2022/03/26 01:24:31;;;;;;;60.50;18.50;;;;;;;2.70;66.63;100401.84;103468;1302;24218;-27
2022/03/26 01:26:57;;;;;;;39.30;13.90;;;;;;;2.67;66.97;100403.85;103440;1302;24261;-29
2022/03/26 01:29:23;;;;;;;52.50;21.50;;;;;;;2.75;66.93;100404.27;103420;1302;24439;-28
2022/03/26 01:31:49;;;;;;;54.90;19.20;;;;;;;2.75;66.66;100399.65;103470;1302;24356;-26
2022/03/26 01:34:15;;;;;;;40.70;16.20;;;;;;;2.87;66.30;100395.95;103459;1302;24374;-29
2022/03/26 01:36:41;;;;;;;49.50;19.90;;;;;;;2.98;65.97;100396.46;103476;1302;22838;-28
2022/03/26 01:39:08;;;;;;;34.10;15.60;;;;;;;2.88;66.13;100394.05;103468;1302;24283;-29
2022/03/26 01:41:34;;;;;;;31.10;11.70;;;;;;;2.90;66.33;100393.20;103492;1302;24427;-25
2022/03/26 01:44:00;;;;;;;25.50;11.10;;;;;;;3.03;66.12;100399.73;103451;1302;24352;-25
2022/03/26 01:46:26;;;;;;;42.70;17.80;;;;;;;3.26;65.41;100396.66;103472;1302;24371;-25
2022/03/26 01:48:52;;;;;;;45.70;14.10;;;;;;;3.06;65.82;100389.26;103403;1302;24267;-28
2022/03/26 01:51:19;;;;;;;62.10;18.40;;;;;;;2.97;66.23;100391.27;103446;1302;23310;-25
2022/03/26 01:53:48;;;;;;;30.80;12.40;;;;;;;3.05;65.87;100391.15;103421;1301;24383;-28
2022/03/26 01:56:14;;;;;;;39.50;16.30;;;;;;;2.97;66.29;100388.41;103468;1302;22633;-28
2022/03/26 01:58:41;;;;;;;51.00;15.30;;;;;;;2.82;66.68;100387.98;103166;1302;24237;-25
2022/03/26 02:01:07;;;;;;;23.70;10.40;;;;;;;2.82;66.88;100389.04;103455;1302;24348;-28
2022/03/26 02:03:32;;;;;;;39.20;13.20;;;;;;;3.03;66.01;100387.16;103233;1302;24210;-25
2022/03/26 02:05:58;;;;;;;30.90;13.40;;;;;;;2.96;66.00;100382.09;103394;1302;22495;-28
2022/03/26 02:08:24;;;;;;;34.00;14.80;;;;;;;3.09;65.71;100387.23;103311;1302;22514;-25
2022/03/26 02:10:50;;;;;;;32.80;13.10;;;;;;;3.11;65.51;100382.96;103353;1303;24281;-25
2022/03/26 02:13:16;;;;;;;31.70;14.00;;;;;;;3.17;65.47;100384.30;103307;1302;24253;-26
2022/03/26 02:15:42;;;;;;;38.30;16.10;;;;;;;2.98;66.08;100382.45;103417;1302;24329;-28
2022/03/26 02:18:09;;;;;;;33.90;12.00;;;;;;;2.97;66.29;100379.89;103436;1301;24199;-28
2022/03/26 02:20:35;;;;;;;47.60;19.60;;;;;;;3.03;65.90;100381.53;103482;1302;22725;-29
2022/03/26 02:23:01;;;;;;;29.10;14.50;;;;;;;3.00;66.34;100384.80;103408;1302;24320;-29
2022/03/26 02:25:27;;;;;;;33.90;16.60;;;;;;;3.13;66.09;100387.81;103402;1302;24218;-29
2022/03/26 02:27:53;;;;;;;54.70;19.70;;;;;;;3.04;66.51;100391.75;103494;1302;24218;-28
2022/03/26 02:30:20;;;;;;;20.00;9.60;;;;;;;3.01;66.38;100388.20;103441;1302;24359;-28
2022/03/26 02:32:46;;;;;;;38.70;15.70;;;;;;;3.08;66.41;100389.40;103455;1302;24366;-29
2022/03/26 02:35:11;;;;;;;48.30;16.40;;;;;;;-23.09;52.81;80311.16;102746;1302;1002544;-27
2022/03/26 02:37:37;;;;;;;18.70;9.20;;;;;;;2.98;66.89;100388.52;102977;1302;780531;-25
2022/03/26 02:40:06;;;;;;;40.70;17.40;;;;;;;2.95;67.10;100388.73;103463;1302;22896;-27
2022/03/26 02:42:34;;;;;;;41.10;16.90;;;;;;;2.87;67.55;100385.64;103377;1302;22502;-26
2022/03/26 02:45:00;;;;;;;41.00;15.60;;;;;;;2.82;67.64;100392.80;103453;1302;24264;-28
2022/03/26 02:47:25;;;;;;;25.10;11.70;;;;;;;2.80;67.66;100389.89;103381;1302;24281;-25
2022/03/26 02:49:51;;;;;;;49.90;20.60;;;;;;;2.78;67.89;100390.48;103419;1302;24278;-25
2022/03/26 02:52:17;;;;;;;48.60;19.90;;;;;;;2.63;68.36;100388.13;103427;1302;24473;-28
2022/03/26 02:54:43;;;;;;;44.50;17.40;;;;;;;2.47;69.12;100392.20;103494;1302;24318;-30
2022/03/26 02:57:09;;;;;;;41.70;16.50;;;;;;;2.38;69.14;100388.46;103471;1302;24259;-30
2022/03/26 02:59:35;;;;;;;51.10;16.30;;;;;;;2.33;69.12;100386.01;103410;1302;24378;-29
2022/03/26 03:02:00;;;;;;;58.80;18.00;;;;;;;2.35;69.00;100388.17;103347;1302;24309;-28
2022/03/26 03:04:26;;;;;;;40.40;17.20;;;;;;;2.34;68.95;100382.60;103411;1301;24296;-28
2022/03/26 03:06:52;;;;;;;63.00;20.90;;;;;;;2.32;68.96;100383.84;103517;1302;24234;-28
2022/03/26 03:09:18;;;;;;;25.90;10.80;;;;;;;2.16;69.97;100384.36;103475;1302;24391;-26
2022/03/26 03:11:44;;;;;;;44.50;18.30;;;;;;;2.23;69.58;100383.80;103430;1302;24253;-28
2022/03/26 03:14:10;;;;;;;42.70;18.30;;;;;;;2.08;70.71;100379.89;103417;1302;24266;-25
2022/03/26 03:16:37;;;;;;;47.70;19.40;;;;;;;2.13;70.71;100381.77;103459;1302;24414;-28
2022/03/26 03:19:04;;;;;;;56.80;20.00;;;;;;;2.16;70.78;100378.38;103441;1302;24238;-25
2022/03/26 03:21:30;;;;;;;49.80;19.30;;;;;;;2.07;70.60;100369.19;103411;1302;24379;-30
2022/03/26 03:23:55;;;;;;;61.90;19.30;;;;;;;2.05;70.95;100366.84;103428;1302;24250;-25
2022/03/26 03:26:21;;;;;;;32.80;13.90;;;;;;;2.06;71.55;100364.97;103424;1302;24241;-25
2022/03/26 03:28:47;;;;;;;47.40;18.10;;;;;;;2.14;71.54;100363.50;103418;1302;24369;-28
2022/03/26 03:31:12;;;;;;;38.60;16.60;;;;;;;2.24;71.15;100358.45;103412;1302;24218;-27
2022/03/26 03:33:38;;;;;;;45.90;16.80;;;;;;;2.14;71.89;100357.67;103373;1301;24320;-28
2022/03/26 03:36:05;;;;;;;48.50;17.90;;;;;;;2.15;72.31;100360.06;103438;1302;24202;-30
2022/03/26 03:38:31;;;;;;;45.70;20.80;;;;;;;2.47;71.52;100356.14;103549;1302;24305;-29
2022/03/26 03:40:57;;;;;;;30.60;6.30;;;;;;;2.31;72.01;100356.10;103433;1302;22636;-25
2022/03/26 03:43:22;;;;;;;38.70;17.00;;;;;;;2.34;71.88;100347.57;103535;1302;24818;-26
2022/03/26 03:45:49;;;;;;;53.90;17.60;;;;;;;2.43;71.90;100349.20;103490;1302;24316;-28
2022/03/26 03:48:15;;;;;;;41.60;20.60;;;;;;;2.30;72.28;100345.59;103466;1300;24218;-25
2022/03/26 03:50:43;;;;;;;56.70;20.20;;;;;;;2.14;72.76;100341.75;103502;1302;24248;-29
2022/03/26 03:53:09;;;;;;;42.10;18.30;;;;;;;2.03;73.53;100343.63;103479;1302;24294;-26
2022/03/26 03:55:35;;;;;;;55.20;20.30;;;;;;;2.07;73.06;100341.07;103428;1302;24304;-29
2022/03/26 03:58:01;;;;;;;37.50;16.00;;;;;;;2.11;72.80;100341.12;103423;1301;24321;-25
2022/03/26 04:00:27;;;;;;;32.30;13.10;;;;;;;2.20;72.81;100337.60;103428;1302;24254;-29
2022/03/26 04:02:53;;;;;;;33.90;16.50;;;;;;;2.19;73.04;100337.08;103418;1302;22560;-27
2022/03/26 04:05:19;;;;;;;41.80;19.10;;;;;;;2.20;73.02;100329.60;103381;1302;24259;-25
2022/03/26 04:07:45;;;;;;;31.80;12.10;;;;;;;2.14;73.71;100335.23;103342;1302;24338;-30
2022/03/26 04:10:10;;;;;;;45.40;17.70;;;;;;;2.11;73.99;100333.30;103408;1302;24273;-29
2022/03/26 04:12:38;;;;;;;50.20;17.00;;;;;;;2.03;74.59;100333.79;103004;1302;564211;-29
2022/03/26 04:15:05;;;;;;;45.20;17.50;;;;;;;2.03;74.84;100337.79;103466;1302;24256;-29
2022/03/26 04:17:32;;;;;;;34.30;16.00;;;;;;;2.14;74.65;100338.36;103452;1302;24225;-31
2022/03/26 04:19:58;;;;;;;40.00;18.10;;;;;;;2.10;74.61;100335.90;103429;1302;24307;-28
2022/03/26 04:22:24;;;;;;;49.50;21.00;;;;;;;2.01;75.12;100345.61;103454;1302;24166;-29
2022/03/26 04:24:50;;;;;;;42.90;19.60;;;;;;;2.02;74.91;100350.81;103439;1302;24369;-25
2022/03/26 04:27:16;;;;;;;45.80;17.40;;;;;;;2.21;74.23;100351.66;103381;1302;24317;-31
2022/03/26 04:29:41;;;;;;;34.50;15.40;;;;;;;2.29;73.88;100344.10;103424;1302;24224;-25
2022/03/26 04:32:10;;;;;;;31.30;11.60;;;;;;;2.17;73.56;100346.45;103293;1302;24299;-29
2022/03/26 04:34:37;;;;;;;42.10;16.30;;;;;;;2.03;74.20;100344.34;103486;1302;22517;-25
2022/03/26 04:37:04;;;;;;;44.20;17.60;;;;;;;1.87;75.19;100347.02;103476;1301;22518;-25
2022/03/26 04:39:30;;;;;;;33.90;16.10;;;;;;;1.88;75.45;100350.63;103308;1302;24414;-25
2022/03/26 04:41:55;;;;;;;55.00;18.80;;;;;;;1.96;75.67;100349.16;103387;1302;24243;-27
2022/03/26 04:44:21;;;;;;;39.00;18.40;;;;;;;1.80;76.29;100346.83;103347;1302;24205;-25
2022/03/26 04:46:47;;;;;;;47.30;18.90;;;;;;;1.67;76.92;100349.21;103383;1302;24349;-24
2022/03/26 04:49:13;;;;;;;52.30;16.40;;;;;;;1.69;77.36;100342.77;103418;1302;24338;-28
2022/03/26 04:51:38;;;;;;;20.80;10.00;;;;;;;1.80;77.56;100344.53;103484;1302;25324;-26
2022/03/26 04:54:04;;;;;;;47.60;18.50;;;;;;;2.02;76.92;100345.13;103405;1302;24224;-26
2022/03/26 04:56:30;;;;;;;31.60;13.60;;;;;;;2.12;76.75;100341.70;103452;1302;24220;-29
2022/03/26 04:58:55;;;;;;;47.30;19.20;;;;;;;2.13;76.74;100341.80;103417;1302;24276;-25
2022/03/26 05:01:22;;;;;;;46.00;18.90;;;;;;;2.18;76.47;100330.84;103434;1302;24216;-26
2022/03/26 05:03:49;;;;;;;54.00;16.00;;;;;;;2.16;76.90;100331.54;103484;1302;24263;-29
2022/03/26 05:06:14;;;;;;;23.10;9.60;;;;;;;2.17;76.95;100339.21;103428;1302;23178;-30
2022/03/26 05:08:40;;;;;;;23.90;12.30;;;;;;;2.18;77.16;100339.64;103443;1302;24214;-28
2022/03/26 05:11:06;;;;;;;35.60;16.60;;;;;;;2.43;76.75;100332.04;103377;1302;24202;-25
2022/03/26 05:13:32;;;;;;;19.60;12.50;;;;;;;2.46;76.19;100329.83;103430;1302;24281;-25
2022/03/26 05:15:58;;;;;;;28.10;12.00;;;;;;;2.52;76.22;100327.06;103385;1301;24287;-29
2022/03/26 05:18:24;;;;;;;27.50;14.00;;;;;;;2.55;76.53;100325.82;103420;1302;24363;-28
2022/03/26 05:20:50;;;;;;;48.30;18.00;;;;;;;2.63;76.16;100326.35;103443;1302;24272;-26
2022/03/26 05:23:16;;;;;;;47.30;16.00;;;;;;;2.85;75.74;100327.30;103423;1302;22754;-25
2022/03/26 05:25:42;;;;;;;124.10;16.50;;;;;;;2.86;75.55;100327.94;103385;1302;24250;-28
2022/03/26 05:28:08;;;;;;;24.80;10.60;;;;;;;2.82;75.97;100328.38;103468;1302;22906;-27
2022/03/26 05:30:34;;;;;;;37.70;20.70;;;;;;;2.96;75.71;100332.18;103430;1302;23836;-28
2022/03/26 05:33:00;;;;;;;37.20;16.80;;;;;;;2.91;75.98;100330.69;103469;1302;24301;-25
2022/03/26 05:35:27;;;;;;;26.60;14.60;;;;;;;2.93;76.36;100331.06;103508;1302;22910;-30
2022/03/26 05:37:53;;;;;;;32.00;15.50;;;;;;;3.00;76.25;100327.77;103505;1302;24321;-27
2022/03/26 05:40:19;;;;;;;26.20;18.00;;;;;;;3.13;76.22;100332.76;103477;1302;24399;-25
2022/03/26 05:42:46;;;;;;;22.60;10.60;;;;;;;3.38;75.38;100334.63;103445;1302;24239;-25
2022/03/26 05:45:13;;;;;;;39.20;14.40;;;;;;;3.43;75.25;100334.77;103381;1302;24293;-25
2022/03/26 05:47:38;;;;;;;31.20;12.90;;;;;;;3.35;75.91;100334.34;103484;1302;24219;-26
2022/03/26 05:50:06;;;;;;;35.60;14.90;;;;;;;3.54;75.65;100333.80;103417;1302;24299;-29
2022/03/26 05:52:32;;;;;;;31.60;14.50;;;;;;;3.57;76.04;100339.38;103462;1302;24218;-29
2022/03/26 05:54:57;;;;;;;36.80;16.20;;;;;;;3.67;76.05;100336.82;103376;1302;24245;-27
2022/03/26 05:57:23;;;;;;;67.50;20.40;;;;;;;3.62;76.67;100339.81;103372;1302;24236;-29
2022/03/26 05:59:49;;;;;;;26.30;12.00;;;;;;;3.75;76.69;100341.91;103462;1302;23898;-28
2022/03/26 06:02:15;;;;;;;35.30;11.30;;;;;;;3.93;76.47;100339.20;103469;1302;22714;-29
2022/03/26 06:04:41;;;;;;;33.80;16.00;;;;;;;4.05;76.37;100340.11;103534;1302;24342;-30
2022/03/26 06:07:08;;;;;;;28.80;12.10;;;;;;;4.04;76.76;100335.56;103384;1302;24260;-25
2022/03/26 06:09:34;;;;;;;36.80;15.70;;;;;;;4.15;76.95;100337.80;103425;1302;24043;-25
2022/03/26 06:12:00;;;;;;;47.80;19.40;;;;;;;4.25;77.59;100338.05;103401;1302;24302;-30
2022/03/26 06:14:26;;;;;;;20.80;10.40;;;;;;;4.31;77.57;100342.67;103436;1302;24355;-24
2022/03/26 06:16:52;;;;;;;52.40;15.90;;;;;;;4.60;76.92;100347.16;103455;1302;24250;-25
2022/03/26 06:19:18;;;;;;;30.30;14.00;;;;;;;4.95;75.23;100349.58;103433;1302;24375;-28
2022/03/26 06:21:43;;;;;;;57.70;22.90;;;;;;;5.10;74.68;100344.17;103417;1302;24987;-24
2022/03/26 06:24:09;;;;;;;55.20;21.50;;;;;;;5.38;73.13;100340.87;103447;1301;24215;-24
2022/03/26 06:26:37;;;;;;;34.30;12.70;;;;;;;5.68;71.42;100338.38;103438;1302;23960;-28
2022/03/26 06:29:04;;;;;;;28.90;17.80;;;;;;;5.74;71.34;100338.90;103463;1302;24215;-27
2022/03/26 06:31:30;;;;;;;48.00;19.70;;;;;;;5.89;70.47;100338.55;103414;1302;24346;-24
2022/03/26 06:33:55;;;;;;;49.20;19.30;;;;;;;5.65;71.46;100341.36;103434;1302;24325;-30
2022/03/26 06:36:22;;;;;;;41.20;17.90;;;;;;;6.10;70.11;100339.06;103408;1302;24218;-31
2022/03/26 06:38:48;;;;;;;25.10;13.90;;;;;;;6.27;69.51;100341.02;103403;1302;24509;-28
2022/03/26 06:41:14;;;;;;;40.90;18.60;;;;;;;6.42;68.98;100340.66;103333;1302;24206;-25
2022/03/26 06:43:40;;;;;;;38.00;16.00;;;;;;;6.67;68.32;100337.30;103505;1302;24354;-29
2022/03/26 06:46:07;;;;;;;52.20;18.90;;;;;;;6.96;66.85;100332.96;103478;1302;24210;-29
2022/03/26 06:48:33;;;;;;;36.00;16.90;;;;;;;6.83;67.29;100320.70;103438;1301;24251;-26
2022/03/26 06:51:01;;;;;;;35.40;16.90;;;;;;;7.14;66.40;100320.16;103225;1302;24374;-26
2022/03/26 06:53:28;;;;;;;41.60;17.80;;;;;;;7.46;65.00;100323.20;103344;1302;24984;-24
2022/03/26 06:55:54;;;;;;;39.30;17.40;;;;;;;7.29;65.45;100325.61;103418;1302;24282;-25
2022/03/26 06:58:19;;;;;;;31.90;15.90;;;;;;;7.36;65.88;100326.98;103369;1302;24221;-27
2022/03/26 07:00:45;;;;;;;32.30;16.70;;;;;;;7.72;64.37;100323.75;103453;1302;24371;-28
2022/03/26 07:03:11;;;;;;;63.60;21.00;;;;;;;7.62;64.74;100328.31;103441;1302;24346;-25
2022/03/26 07:05:37;;;;;;;41.50;19.40;;;;;;;7.70;64.49;100330.92;103391;1302;24224;-29
2022/03/26 07:08:04;;;;;;;41.60;19.50;;;;;;;7.90;63.96;100329.98;103472;1302;24383;-28
2022/03/26 07:10:30;;;;;;;33.10;16.70;;;;;;;8.49;61.64;100325.77;103533;1301;25505;-30
2022/03/26 07:12:56;;;;;;;24.50;14.10;;;;;;;8.54;61.54;100326.23;103479;1302;24260;-26
2022/03/26 07:15:21;;;;;;;38.80;16.80;;;;;;;8.68;61.40;100328.66;103489;1302;24393;-28
2022/03/26 07:17:47;;;;;;;39.00;14.90;;;;;;;8.53;62.37;100326.64;103510;1302;24284;-27
2022/03/26 07:20:14;;;;;;;41.70;19.40;;;;;;;8.68;62.44;100324.73;103398;1302;24230;-28
2022/03/26 07:22:41;;;;;;;38.50;17.20;;;;;;;8.81;62.30;100324.41;103520;1302;24373;-25
2022/03/26 07:25:08;;;;;;;26.50;14.00;;;;;;;9.53;59.60;100322.77;103422;1301;24251;-27
2022/03/26 07:27:34;;;;;;;30.30;14.10;;;;;;;9.46;59.33;100321.73;103452;1302;24198;-25
2022/03/26 07:30:00;;;;;;;39.30;19.80;;;;;;;9.81;59.14;100319.61;103422;1302;22752;-25
2022/03/26 07:32:26;;;;;;;36.60;16.90;;;;;;;9.95;58.12;100317.12;103442;1302;24254;-28
2022/03/26 07:34:52;;;;;;;21.90;10.20;;;;;;;10.06;57.62;100315.85;103400;1302;24353;-27
2022/03/26 07:37:18;;;;;;;19.10;13.70;;;;;;;10.40;56.37;100310.84;103494;1302;24323;-26
2022/03/26 07:39:44;;;;;;;37.30;17.00;;;;;;;10.55;56.53;100314.58;103343;1302;24218;-30
2022/03/26 07:42:09;;;;;;;19.60;11.00;;;;;;;10.49;56.80;100315.33;103435;1302;24354;-27
2022/03/26 07:44:35;;;;;;;36.50;15.60;;;;;;;10.87;56.04;100308.03;103466;1302;22516;-29
2022/03/26 07:47:01;;;;;;;36.90;12.70;;;;;;;10.83;56.38;100309.37;103468;1302;24271;-26
2022/03/26 07:49:27;;;;;;;27.60;13.60;;;;;;;10.91;56.84;100304.16;103445;1301;24390;-27
2022/03/26 07:51:53;;;;;;;33.60;14.90;;;;;;;11.15;56.12;100298.70;103407;1302;24361;-28
2022/03/26 07:54:19;;;;;;;32.30;13.50;;;;;;;11.47;54.42;100297.81;103411;1302;24217;-25
2022/03/26 07:56:45;;;;;;;27.50;16.30;;;;;;;11.64;53.80;100291.48;103421;1302;24262;-28
2022/03/26 07:59:10;;;;;;;30.60;12.40;;;;;;;11.93;53.10;100293.14;103419;1302;24315;-29
2022/03/26 08:01:36;;;;;;;32.90;15.20;;;;;;;12.02;52.53;100289.64;103444;1302;24483;-29
2022/03/26 08:04:02;;;;;;;35.40;17.20;;;;;;;12.18;51.89;100289.23;103428;1302;24238;-25
2022/03/26 08:06:27;;;;;;;33.30;15.70;;;;;;;11.74;52.93;100294.48;103448;1302;24348;-29
2022/03/26 08:08:53;;;;;;;34.20;16.40;;;;;;;12.08;52.89;100293.79;103468;1302;24308;-26
2022/03/26 08:11:19;;;;;;;22.20;10.60;;;;;;;12.08;52.90;100282.62;103448;1302;24236;-24
2022/03/26 08:13:44;;;;;;;26.10;14.70;;;;;;;12.46;51.70;100283.88;103472;1302;24250;-28
2022/03/26 08:16:10;;;;;;;30.50;16.00;;;;;;;12.72;50.65;100282.06;103426;1302;24281;-28
2022/03/26 08:18:36;;;;;;;34.70;15.90;;;;;;;12.52;51.20;100280.95;103315;1302;24251;-29
2022/03/26 08:21:02;;;;;;;30.40;15.90;;;;;;;12.56;51.08;100277.80;103422;1302;24261;-25
2022/03/26 08:23:28;;;;;;;26.70;14.00;;;;;;;12.80;50.28;100275.57;103424;1302;24192;-28
2022/03/26 08:28:22;;;;;;;19.00;9.40;;;;;;;13.10;49.20;100282.36;103486;1302;22650;-25
2022/03/26 08:30:48;;;;;;;38.80;15.30;;;;;;;13.27;48.21;100280.67;103405;1302;24322;-24
2022/03/26 08:33:15;;;;;;;33.50;13.70;;;;;;;13.36;48.42;100284.58;103364;1303;24252;-24
2022/03/26 08:35:41;;;;;;;27.60;13.30;;;;;;;13.87;46.47;100278.31;103370;1302;24335;-24
2022/03/26 08:38:07;;;;;;;22.10;12.80;;;;;;;13.55;47.13;100279.07;103304;1302;22611;-28
2022/03/26 08:40:34;;;;;;;28.80;14.60;;;;;;;13.84;46.08;100271.41;103488;1301;24461;-25
2022/03/26 08:43:00;;;;;;;28.10;13.50;;;;;;;13.55;47.21;100273.13;103431;1302;25968;-25
2022/03/26 08:45:27;;;;;;;19.00;13.70;;;;;;;14.11;46.16;100268.61;103629;1302;22492;-26
2022/03/26 08:47:52;;;;;;;19.70;9.70;;;;;;;14.33;44.79;100268.68;103514;1302;24250;-26
2022/03/26 08:50:18;;;;;;;22.40;15.00;;;;;;;14.23;44.86;100270.42;103414;1302;25358;-30
2022/03/26 08:52:47;;;;;;;22.10;12.40;;;;;;;14.26;44.47;100270.62;103279;1302;24298;-26
2022/03/26 08:55:16;;;;;;;32.60;18.10;;;;;;;14.25;44.91;100275.13;103481;1302;24277;-31
2022/03/26 08:57:41;;;;;;;27.20;13.80;;;;;;;14.88;43.25;100267.16;103484;1302;24241;-27
2022/03/26 09:00:08;;;;;;;29.50;12.40;;;;;;;14.77;43.92;100269.31;103472;1302;24444;-25
2022/03/26 09:02:34;;;;;;;29.10;13.00;;;;;;;14.68;44.21;100262.17;103471;1302;24260;-24
2022/03/26 09:04:59;;;;;;;21.40;10.90;;;;;;;14.90;43.66;100253.47;103245;1302;24276;-28
2022/03/26 09:07:25;;;;;;;27.50;16.90;;;;;;;15.09;43.27;100250.60;103408;1302;24385;-23
2022/03/26 09:09:51;;;;;;;23.20;12.60;;;;;;;14.60;43.64;100247.56;103421;1301;22881;-26
2022/03/26 09:12:16;;;;;;;20.80;14.30;;;;;;;15.01;42.74;100244.55;103167;1303;24305;-25
2022/03/26 09:14:43;;;;;;;18.00;14.30;;;;;;;15.19;42.51;100245.69;103498;1302;24214;-25
2022/03/26 09:17:09;;;;;;;15.60;7.80;;;;;;;15.30;42.51;100239.54;103465;1302;24442;-29
2022/03/26 09:19:36;;;;;;;22.80;12.30;;;;;;;14.92;43.62;100245.36;103470;1302;22508;-26
2022/03/26 09:22:02;;;;;;;10.40;8.10;;;;;;;15.65;41.96;100237.42;103432;1302;22524;-25
2022/03/26 09:24:28;;;;;;;15.90;11.80;;;;;;;15.59;41.98;100241.27;103354;1302;24250;-28
2022/03/26 09:26:54;;;;;;;20.80;10.70;;;;;;;15.62;41.40;100234.22;103461;1302;24292;-28
2022/03/26 09:29:20;;;;;;;17.00;8.00;;;;;;;15.59;42.19;100234.17;103402;1302;22518;-24
2022/03/26 09:31:46;;;;;;;19.00;12.90;;;;;;;15.17;43.65;100236.60;103437;1302;24217;-25
2022/03/26 09:34:12;;;;;;;26.60;15.40;;;;;;;15.76;41.97;100228.93;103392;1302;22511;-26
2022/03/26 09:36:38;;;;;;;14.00;9.80;;;;;;;15.45;41.99;100224.05;103278;1302;24230;-25
2022/03/26 09:39:04;;;;;;;26.80;11.50;;;;;;;15.36;42.10;100221.50;103415;1302;24192;-28
2022/03/26 09:41:31;;;;;;;39.50;14.60;;;;;;;16.14;40.98;100228.18;103440;1302;24214;-29
2022/03/26 09:43:57;;;;;;;14.20;8.50;;;;;;;16.25;40.62;100223.41;103537;1302;22739;-24
2022/03/26 09:46:24;;;;;;;14.80;11.00;;;;;;;16.25;40.04;100221.31;103498;1302;24263;-25
2022/03/26 09:48:50;;;;;;;21.90;9.10;;;;;;;15.89;40.08;100212.61;103481;1302;24286;-30
2022/03/26 09:51:18;;;;;;;17.10;10.40;;;;;;;16.10;39.23;100199.83;103468;1302;24219;-25
2022/03/26 09:53:44;;;;;;;22.00;11.60;;;;;;;15.95;39.02;100217.35;103431;1302;24389;-26
2022/03/26 09:56:10;;;;;;;23.50;14.20;;;;;;;16.24;38.02;100196.58;103455;1302;24268;-25
2022/03/26 09:58:36;;;;;;;14.90;9.70;;;;;;;16.22;38.19;100201.77;103469;1302;24405;-25
2022/03/26 10:01:02;;;;;;;18.00;10.70;;;;;;;15.38;40.66;100198.19;103438;1302;22660;-25
2022/03/26 10:03:28;;;;;;;18.80;10.50;;;;;;;15.31;41.54;100210.34;103386;1302;24489;-25
2022/03/26 10:06:00;;;;;;;26.30;11.40;;;;;;;15.63;41.23;100199.14;103442;1302;24410;-28
2022/03/26 10:08:26;;;;;;;25.00;11.60;;;;;;;16.32;39.08;100197.77;103400;1302;24012;-25
2022/03/26 10:10:52;;;;;;;18.40;8.80;;;;;;;15.80;39.34;100192.13;103538;1302;24364;-24
2022/03/26 10:13:33;;;;;;;14.30;7.90;;;;;;;16.19;39.76;100197.50;103434;1302;24352;-26
2022/03/26 10:16:00;;;;;;;14.70;6.20;;;;;;;16.45;37.86;100176.31;103226;1303;24981;-24
2022/03/26 10:18:33;;;;;;;23.10;7.80;;;;;;;16.25;38.56;100179.29;103764;1302;24324;-25
2022/03/26 10:21:00;;;;;;;18.10;8.10;;;;;;;16.89;36.57;100173.21;103697;1302;24349;-26
2022/03/26 10:23:28;;;;;;;22.00;10.50;;;;;;;15.99;38.19;100179.65;103602;1301;22496;-31
2022/03/26 10:26:00;;;;;;;14.20;5.60;;;;;;;16.19;37.84;100181.42;103736;1302;24225;-30
2022/03/26 10:28:26;;;;;;;12.70;6.80;;;;;;;16.68;37.57;100175.39;103679;1302;22515;-30
2022/03/26 10:33:23;;;;;;;22.60;5.90;;;;;;;16.86;35.61;100165.80;103559;1302;22521;-26
2022/03/26 10:35:53;;;;;;;17.20;5.20;;;;;;;16.70;35.91;100167.60;103366;1302;24234;-25
2022/03/26 10:38:19;;;;;;;10.40;5.90;;;;;;;16.61;36.00;100180.17;103521;1302;24354;-25
2022/03/26 10:40:44;;;;;;;20.40;5.60;;;;;;;17.13;35.00;100184.41;103457;1302;24177;-24
2022/03/26 10:43:12;;;;;;;10.10;4.70;;;;;;;17.05;34.92;100176.66;103451;1302;22517;-28
2022/03/26 10:45:45;;;;;;;11.40;5.10;;;;;;;16.43;36.78;100171.38;103505;1302;22506;-30
2022/03/26 10:48:11;;;;;;;9.40;5.10;;;;;;;16.32;37.68;100167.84;103437;1302;25352;-23
2022/03/26 10:50:38;;;;;;;5.40;3.90;;;;;;;16.45;37.01;100173.33;103512;1302;22514;-25
2022/03/26 10:53:06;;;;;;;10.30;4.80;;;;;;;16.82;36.56;100175.85;103544;1302;24466;-27
2022/03/26 10:55:32;;;;;;;3.10;2.20;;;;;;;16.95;36.50;100173.90;103501;1302;22596;-30
2022/03/26 10:57:58;;;;;;;13.10;4.50;;;;;;;17.46;36.01;100162.09;103437;1302;22787;-30
2022/03/26 11:00:23;;;;;;;13.00;5.00;;;;;;;17.29;35.30;100168.31;103382;1302;24229;-25
2022/03/26 11:02:49;;;;;;;6.60;5.60;;;;;;;17.02;36.13;100172.27;103425;1302;24387;-25
2022/03/26 11:05:15;;;;;;;10.00;5.30;;;;;;;17.08;36.27;100168.72;103466;1302;24199;-24
2022/03/26 11:07:41;;;;;;;11.50;5.30;;;;;;;17.21;36.43;100166.39;103564;1302;24346;-26